Terminal Aerodrome Forecast
Issued by NWS Kansas City/Pleasant Hill, MO

Home | Current Version | Previous Version | Text Only | Print | Product List | Glossary On
Versions: 1 2 3 4 5 6 7 8 9 10 11 12 13 14 15 16 17 18 19
000
FTUS43 KEAX 301120
TAFMCI
TAF
KMCI 301120Z 3012/3112 09007KT P6SM BKN150
     FM302100 07008KT P6SM VCTS SCT030CB BKN100=

USA.gov is the U.S. government's official web portal to all federal, state and local government web resources and services.